sensor_id;sensor_type;location;lat;lon;timestamp;temperature;humidity
29007;DHT22;16104;48.642;9.008;2022-12-19T00:00:27;2.20;67.10
29007;DHT22;16104;48.642;9.008;2022-12-19T00:05:23;2.20;67.00
29007;DHT22;16104;48.642;9.008;2022-12-19T00:10:18;2.30;67.10
29007;DHT22;16104;48.642;9.008;2022-12-19T00:15:14;2.30;67.10
29007;DHT22;16104;48.642;9.008;2022-12-19T00:20:10;2.40;67.20
29007;DHT22;16104;48.642;9.008;2022-12-19T00:25:06;2.40;67.30
29007;DHT22;16104;48.642;9.008;2022-12-19T00:30:02;2.50;67.20
29007;DHT22;16104;48.642;9.008;2022-12-19T00:34:57;2.50;67.20
29007;DHT22;16104;48.642;9.008;2022-12-19T00:39:53;2.60;67.30
29007;DHT22;16104;48.642;9.008;2022-12-19T00:44:48;2.60;67.30
29007;DHT22;16104;48.642;9.008;2022-12-19T00:49:44;2.70;67.40
29007;DHT22;16104;48.642;9.008;2022-12-19T00:54:39;2.70;67.40
29007;DHT22;16104;48.642;9.008;2022-12-19T00:59:35;2.80;67.40
29007;DHT22;16104;48.642;9.008;2022-12-19T02:03:06;3.20;67.40
29007;DHT22;16104;48.642;9.008;2022-12-19T02:08:04;3.30;67.40
29007;DHT22;16104;48.642;9.008;2022-12-19T02:13:00;3.30;67.20
29007;DHT22;16104;48.642;9.008;2022-12-19T03:09:40;3.80;67.00
29007;DHT22;16104;48.642;9.008;2022-12-19T03:14:40;3.80;67.00
29007;DHT22;16104;48.642;9.008;2022-12-19T04:00:20;4.00;67.60
29007;DHT22;16104;48.642;9.008;2022-12-19T04:05:23;4.10;67.10
29007;DHT22;16104;48.642;9.008;2022-12-19T04:10:21;4.10;67.20
29007;DHT22;16104;48.642;9.008;2022-12-19T04:15:22;4.10;67.10
29007;DHT22;16104;48.642;9.008;2022-12-19T04:20:24;4.20;67.30
29007;DHT22;16104;48.642;9.008;2022-12-19T04:25:29;4.20;67.40
29007;DHT22;16104;48.642;9.008;2022-12-19T04:30:25;4.30;67.50
29007;DHT22;16104;48.642;9.008;2022-12-19T04:35:21;4.30;67.40
29007;DHT22;16104;48.642;9.008;2022-12-19T04:40:16;4.30;67.60
29007;DHT22;16104;48.642;9.008;2022-12-19T04:45:12;4.40;67.80
29007;DHT22;16104;48.642;9.008;2022-12-19T04:50:08;4.50;67.90
29007;DHT22;16104;48.642;9.008;2022-12-19T04:55:04;4.50;68.00
29007;DHT22;16104;48.642;9.008;2022-12-19T05:00:00;4.50;68.00
29007;DHT22;16104;48.642;9.008;2022-12-19T05:04:58;4.50;68.10
29007;DHT22;16104;48.642;9.008;2022-12-19T05:09:53;4.60;68.20
29007;DHT22;16104;48.642;9.008;2022-12-19T05:14:49;4.60;68.30
29007;DHT22;16104;48.642;9.008;2022-12-19T05:19:44;4.70;68.30
29007;DHT22;16104;48.642;9.008;2022-12-19T05:24:40;4.70;68.30
29007;DHT22;16104;48.642;9.008;2022-12-19T05:29:35;4.80;68.20
29007;DHT22;16104;48.642;9.008;2022-12-19T05:34:31;4.80;68.10
29007;DHT22;16104;48.642;9.008;2022-12-19T05:39:26;4.90;68.20
29007;DHT22;16104;48.642;9.008;2022-12-19T05:44:22;4.90;68.10
29007;DHT22;16104;48.642;9.008;2022-12-19T05:49:17;4.90;68.00
29007;DHT22;16104;48.642;9.008;2022-12-19T05:54:13;5.00;68.10
29007;DHT22;16104;48.642;9.008;2022-12-19T05:59:09;5.00;68.10
29007;DHT22;16104;48.642;9.008;2022-12-19T06:04:05;5.00;68.10
29007;DHT22;16104;48.642;9.008;2022-12-19T06:09:02;5.10;68.10
29007;DHT22;16104;48.642;9.008;2022-12-19T06:13:57;5.10;68.10
29007;DHT22;16104;48.642;9.008;2022-12-19T06:18:53;5.10;68.00
29007;DHT22;16104;48.642;9.008;2022-12-19T06:23:48;5.10;67.90
29007;DHT22;16104;48.642;9.008;2022-12-19T06:28:45;5.10;67.90
29007;DHT22;16104;48.642;9.008;2022-12-19T06:33:40;5.10;67.90
29007;DHT22;16104;48.642;9.008;2022-12-19T06:38:36;5.20;68.00
29007;DHT22;16104;48.642;9.008;2022-12-19T06:43:31;5.20;68.00
29007;DHT22;16104;48.642;9.008;2022-12-19T06:48:27;5.20;68.10
29007;DHT22;16104;48.642;9.008;2022-12-19T06:53:23;5.20;68.10
29007;DHT22;16104;48.642;9.008;2022-12-19T06:58:18;5.20;68.10
29007;DHT22;16104;48.642;9.008;2022-12-19T07:03:18;5.20;68.10
29007;DHT22;16104;48.642;9.008;2022-12-19T07:08:15;5.20;68.30
29007;DHT22;16104;48.642;9.008;2022-12-19T07:13:10;5.20;68.20
29007;DHT22;16104;48.642;9.008;2022-12-19T07:18:07;5.20;68.20
29007;DHT22;16104;48.642;9.008;2022-12-19T07:23:04;5.20;68.30
29007;DHT22;16104;48.642;9.008;2022-12-19T07:28:01;5.30;68.40
29007;DHT22;16104;48.642;9.008;2022-12-19T07:32:56;5.30;68.40
29007;DHT22;16104;48.642;9.008;2022-12-19T07:37:52;5.30;68.40
29007;DHT22;16104;48.642;9.008;2022-12-19T07:42:47;5.30;68.40
29007;DHT22;16104;48.642;9.008;2022-12-19T07:47:43;5.30;68.50
29007;DHT22;16104;48.642;9.008;2022-12-19T07:52:39;5.30;68.50
29007;DHT22;16104;48.642;9.008;2022-12-19T07:57:35;5.30;68.60
29007;DHT22;16104;48.642;9.008;2022-12-19T08:02:30;5.30;68.70
29007;DHT22;16104;48.642;9.008;2022-12-19T08:07:26;5.40;68.70
29007;DHT22;16104;48.642;9.008;2022-12-19T08:12:21;5.40;68.70
29007;DHT22;16104;48.642;9.008;2022-12-19T08:17:17;5.50;68.70
29007;DHT22;16104;48.642;9.008;2022-12-19T08:22:13;5.50;68.70
29007;DHT22;16104;48.642;9.008;2022-12-19T08:27:08;5.60;68.70
29007;DHT22;16104;48.642;9.008;2022-12-19T08:32:04;5.60;68.60
29007;DHT22;16104;48.642;9.008;2022-12-19T08:36:59;5.70;68.60
29007;DHT22;16104;48.642;9.008;2022-12-19T08:41:55;5.70;68.50
29007;DHT22;16104;48.642;9.008;2022-12-19T08:46:50;5.70;68.50
29007;DHT22;16104;48.642;9.008;2022-12-19T08:51:46;5.80;68.50
29007;DHT22;16104;48.642;9.008;2022-12-19T08:56:41;5.90;68.40
29007;DHT22;16104;48.642;9.008;2022-12-19T09:01:37;5.90;68.40
29007;DHT22;16104;48.642;9.008;2022-12-19T09:06:32;6.00;68.60
29007;DHT22;16104;48.642;9.008;2022-12-19T09:11:28;6.10;68.70
29007;DHT22;16104;48.642;9.008;2022-12-19T09:16:25;6.20;68.50
29007;DHT22;16104;48.642;9.008;2022-12-19T09:21:22;6.30;68.30
29007;DHT22;16104;48.642;9.008;2022-12-19T09:26:19;6.40;68.20
29007;DHT22;16104;48.642;9.008;2022-12-19T09:31:21;6.60;68.00
29007;DHT22;16104;48.642;9.008;2022-12-19T09:36:23;6.70;67.80
29007;DHT22;16104;48.642;9.008;2022-12-19T09:41:39;6.80;67.30
29007;DHT22;16104;48.642;9.008;2022-12-19T09:57:39;7.20;66.80
29007;DHT22;16104;48.642;9.008;2022-12-19T10:02:43;7.30;66.50
29007;DHT22;16104;48.642;9.008;2022-12-19T10:07:42;7.30;66.40
29007;DHT22;16104;48.642;9.008;2022-12-19T10:18:09;7.40;66.20
29007;DHT22;16104;48.642;9.008;2022-12-19T10:28:51;7.60;65.80
29007;DHT22;16104;48.642;9.008;2022-12-19T10:34:05;7.60;65.80
29007;DHT22;16104;48.642;9.008;2022-12-19T10:39:33;7.70;65.80
29007;DHT22;16104;48.642;9.008;2022-12-19T10:44:31;7.80;65.70
29007;DHT22;16104;48.642;9.008;2022-12-19T10:49:29;7.80;65.70
29007;DHT22;16104;48.642;9.008;2022-12-19T10:59:34;8.00;65.20
29007;DHT22;16104;48.642;9.008;2022-12-19T11:04:32;8.10;65.50
29007;DHT22;16104;48.642;9.008;2022-12-19T11:09:41;8.10;65.40
29007;DHT22;16104;48.642;9.008;2022-12-19T11:14:42;8.30;65.30
29007;DHT22;16104;48.642;9.008;2022-12-19T11:19:38;8.40;65.30
29007;DHT22;16104;48.642;9.008;2022-12-19T11:24:38;8.60;65.40
29007;DHT22;16104;48.642;9.008;2022-12-19T11:29:45;8.80;65.20
29007;DHT22;16104;48.642;9.008;2022-12-19T11:34:48;8.90;64.50
29007;DHT22;16104;48.642;9.008;2022-12-19T11:39:47;9.00;64.00
29007;DHT22;16104;48.642;9.008;2022-12-19T11:44:52;9.10;63.70
29007;DHT22;16104;48.642;9.008;2022-12-19T11:50:03;9.20;63.60
29007;DHT22;16104;48.642;9.008;2022-12-19T12:00:10;9.30;64.10
29007;DHT22;16104;48.642;9.008;2022-12-19T12:10:27;9.50;63.50
29007;DHT22;16104;48.642;9.008;2022-12-19T12:20:56;9.60;62.80
29007;DHT22;16104;48.642;9.008;2022-12-19T12:47:23;9.90;63.90
29007;DHT22;16104;48.642;9.008;2022-12-19T12:52:39;10.00;62.40
29007;DHT22;16104;48.642;9.008;2022-12-19T12:57:36;10.00;62.50
29007;DHT22;16104;48.642;9.008;2022-12-19T13:02:32;10.10;62.20
29007;DHT22;16104;48.642;9.008;2022-12-19T13:12:27;10.10;61.80
29007;DHT22;16104;48.642;9.008;2022-12-19T13:23:00;10.10;61.70
29007;DHT22;16104;48.642;9.008;2022-12-19T13:28:12;10.10;61.30
29007;DHT22;16104;48.642;9.008;2022-12-19T13:33:09;10.00;61.40
29007;DHT22;16104;48.642;9.008;2022-12-19T13:43:22;9.90;61.20
29007;DHT22;16104;48.642;9.008;2022-12-19T13:48:46;9.80;61.40
29007;DHT22;16104;48.642;9.008;2022-12-19T13:53:42;9.70;61.40
29007;DHT22;16104;48.642;9.008;2022-12-19T13:58:47;9.60;61.60
29007;DHT22;16104;48.642;9.008;2022-12-19T14:03:45;9.50;61.60
29007;DHT22;16104;48.642;9.008;2022-12-19T14:08:43;9.40;61.90
29007;DHT22;16104;48.642;9.008;2022-12-19T14:13:46;9.30;62.10
29007;DHT22;16104;48.642;9.008;2022-12-19T14:19:01;9.20;62.40
29007;DHT22;16104;48.642;9.008;2022-12-19T14:24:10;9.20;62.50
29007;DHT22;16104;48.642;9.008;2022-12-19T14:29:19;9.10;63.00
29007;DHT22;16104;48.642;9.008;2022-12-19T14:34:21;9.10;62.80
29007;DHT22;16104;48.642;9.008;2022-12-19T14:39:18;9.00;62.80
29007;DHT22;16104;48.642;9.008;2022-12-19T14:44:17;9.00;62.80
29007;DHT22;16104;48.642;9.008;2022-12-19T14:49:46;8.90;62.80
29007;DHT22;16104;48.642;9.008;2022-12-19T14:54:41;8.80;62.70
29007;DHT22;16104;48.642;9.008;2022-12-19T14:59:42;8.80;63.00
29007;DHT22;16104;48.642;9.008;2022-12-19T15:04:45;8.80;63.00
29007;DHT22;16104;48.642;9.008;2022-12-19T15:09:56;8.70;63.10
29007;DHT22;16104;48.642;9.008;2022-12-19T15:15:02;8.70;63.10
29007;DHT22;16104;48.642;9.008;2022-12-19T15:19:58;8.60;63.20
29007;DHT22;16104;48.642;9.008;2022-12-19T15:24:53;8.60;63.20
29007;DHT22;16104;48.642;9.008;2022-12-19T15:29:48;8.50;63.30
29007;DHT22;16104;48.642;9.008;2022-12-19T15:34:44;8.40;63.40
29007;DHT22;16104;48.642;9.008;2022-12-19T15:39:40;8.40;63.50
29007;DHT22;16104;48.642;9.008;2022-12-19T15:44:38;8.30;63.70
29007;DHT22;16104;48.642;9.008;2022-12-19T15:49:34;8.20;63.70
29007;DHT22;16104;48.642;9.008;2022-12-19T15:54:30;8.10;63.90
29007;DHT22;16104;48.642;9.008;2022-12-19T15:59:27;8.10;64.20
29007;DHT22;16104;48.642;9.008;2022-12-19T16:04:24;8.00;65.00
29007;DHT22;16104;48.642;9.008;2022-12-19T16:09:25;8.00;64.30
29007;DHT22;16104;48.642;9.008;2022-12-19T16:14:22;7.90;64.60
29007;DHT22;16104;48.642;9.008;2022-12-19T16:19:29;7.90;64.80
29007;DHT22;16104;48.642;9.008;2022-12-19T16:24:25;7.80;65.00
29007;DHT22;16104;48.642;9.008;2022-12-19T16:29:24;7.70;65.00
29007;DHT22;16104;48.642;9.008;2022-12-19T16:34:23;7.70;65.20
29007;DHT22;16104;48.642;9.008;2022-12-19T16:39:18;7.70;65.40
29007;DHT22;16104;48.642;9.008;2022-12-19T16:44:20;7.60;65.40
29007;DHT22;16104;48.642;9.008;2022-12-19T16:49:18;7.60;65.60
29007;DHT22;16104;48.642;9.008;2022-12-19T16:54:15;7.60;65.70
29007;DHT22;16104;48.642;9.008;2022-12-19T16:59:18;7.60;65.80
29007;DHT22;16104;48.642;9.008;2022-12-19T17:04:19;7.60;65.80
29007;DHT22;16104;48.642;9.008;2022-12-19T17:09:23;7.60;65.90
29007;DHT22;16104;48.642;9.008;2022-12-19T17:14:21;7.60;66.10
29007;DHT22;16104;48.642;9.008;2022-12-19T17:19:29;7.50;66.20
29007;DHT22;16104;48.642;9.008;2022-12-19T17:24:25;7.50;66.20
29007;DHT22;16104;48.642;9.008;2022-12-19T17:29:21;7.60;66.10
29007;DHT22;16104;48.642;9.008;2022-12-19T17:34:25;7.50;66.00
29007;DHT22;16104;48.642;9.008;2022-12-19T17:39:24;7.50;66.20
29007;DHT22;16104;48.642;9.008;2022-12-19T17:44:20;7.50;66.20
29007;DHT22;16104;48.642;9.008;2022-12-19T17:49:27;7.40;66.30
29007;DHT22;16104;48.642;9.008;2022-12-19T17:54:25;7.40;66.60
29007;DHT22;16104;48.642;9.008;2022-12-19T17:59:20;7.40;66.60
29007;DHT22;16104;48.642;9.008;2022-12-19T18:04:18;7.40;67.10
29007;DHT22;16104;48.642;9.008;2022-12-19T18:09:23;7.40;66.80
29007;DHT22;16104;48.642;9.008;2022-12-19T18:14:19;7.50;66.90
29007;DHT22;16104;48.642;9.008;2022-12-19T18:19:20;7.50;66.80
29007;DHT22;16104;48.642;9.008;2022-12-19T18:24:16;7.50;67.70
29007;DHT22;16104;48.642;9.008;2022-12-19T18:29:12;7.50;66.90
29007;DHT22;16104;48.642;9.008;2022-12-19T18:34:18;7.50;66.90
29007;DHT22;16104;48.642;9.008;2022-12-19T18:39:18;7.60;67.00
29007;DHT22;16104;48.642;9.008;2022-12-19T18:44:14;7.60;66.90
29007;DHT22;16104;48.642;9.008;2022-12-19T18:49:13;7.60;66.80
29007;DHT22;16104;48.642;9.008;2022-12-19T18:54:20;7.60;66.70
29007;DHT22;16104;48.642;9.008;2022-12-19T18:59:16;7.70;66.70
29007;DHT22;16104;48.642;9.008;2022-12-19T19:04:12;7.70;66.50
29007;DHT22;16104;48.642;9.008;2022-12-19T19:09:16;7.70;66.40
29007;DHT22;16104;48.642;9.008;2022-12-19T19:14:12;7.70;66.40
29007;DHT22;16104;48.642;9.008;2022-12-19T19:19:09;7.70;66.30
29007;DHT22;16104;48.642;9.008;2022-12-19T19:24:14;7.70;66.00
29007;DHT22;16104;48.642;9.008;2022-12-19T19:29:11;7.70;66.20
29007;DHT22;16104;48.642;9.008;2022-12-19T19:34:22;7.60;66.10
29007;DHT22;16104;48.642;9.008;2022-12-19T19:39:20;7.60;66.20
29007;DHT22;16104;48.642;9.008;2022-12-19T19:44:17;7.60;66.20
29007;DHT22;16104;48.642;9.008;2022-12-19T19:49:12;7.50;66.20
29007;DHT22;16104;48.642;9.008;2022-12-19T19:54:08;7.50;66.20
29007;DHT22;16104;48.642;9.008;2022-12-19T19:59:04;7.50;66.20
29007;DHT22;16104;48.642;9.008;2022-12-19T20:04:00;7.40;66.20
29007;DHT22;16104;48.642;9.008;2022-12-19T20:08:55;7.40;66.30
29007;DHT22;16104;48.642;9.008;2022-12-19T20:13:51;7.40;66.40
29007;DHT22;16104;48.642;9.008;2022-12-19T20:18:50;7.30;66.50
29007;DHT22;16104;48.642;9.008;2022-12-19T20:23:47;7.30;66.70
29007;DHT22;16104;48.642;9.008;2022-12-19T20:28:44;7.30;66.80
29007;DHT22;16104;48.642;9.008;2022-12-19T20:33:40;7.30;66.90
29007;DHT22;16104;48.642;9.008;2022-12-19T20:38:36;7.30;66.90
29007;DHT22;16104;48.642;9.008;2022-12-19T20:43:32;7.30;66.90
29007;DHT22;16104;48.642;9.008;2022-12-19T20:48:28;7.30;66.90
29007;DHT22;16104;48.642;9.008;2022-12-19T20:53:24;7.30;67.00
29007;DHT22;16104;48.642;9.008;2022-12-19T20:58:20;7.30;67.10
29007;DHT22;16104;48.642;9.008;2022-12-19T21:03:15;7.30;67.20
29007;DHT22;16104;48.642;9.008;2022-12-19T21:08:11;7.40;67.30
29007;DHT22;16104;48.642;9.008;2022-12-19T21:13:06;7.40;67.30
29007;DHT22;16104;48.642;9.008;2022-12-19T21:18:02;7.40;67.30
29007;DHT22;16104;48.642;9.008;2022-12-19T21:22:58;7.40;67.10
29007;DHT22;16104;48.642;9.008;2022-12-19T21:27:53;7.50;67.20
29007;DHT22;16104;48.642;9.008;2022-12-19T21:32:49;7.50;67.00
29007;DHT22;16104;48.642;9.008;2022-12-19T21:37:44;7.50;66.90
29007;DHT22;16104;48.642;9.008;2022-12-19T21:42:44;7.50;66.90
29007;DHT22;16104;48.642;9.008;2022-12-19T21:47:40;7.50;66.90
29007;DHT22;16104;48.642;9.008;2022-12-19T21:52:36;7.50;66.90
29007;DHT22;16104;48.642;9.008;2022-12-19T21:57:32;7.60;66.80
29007;DHT22;16104;48.642;9.008;2022-12-19T22:02:31;7.60;66.80
29007;DHT22;16104;48.642;9.008;2022-12-19T22:07:27;7.60;66.80
29007;DHT22;16104;48.642;9.008;2022-12-19T22:12:22;7.60;66.80
29007;DHT22;16104;48.642;9.008;2022-12-19T22:17:18;7.60;66.70
29007;DHT22;16104;48.642;9.008;2022-12-19T22:22:14;7.60;66.60
29007;DHT22;16104;48.642;9.008;2022-12-19T22:27:09;7.60;66.70
29007;DHT22;16104;48.642;9.008;2022-12-19T22:32:05;7.70;66.50
29007;DHT22;16104;48.642;9.008;2022-12-19T22:37:00;7.70;66.50
29007;DHT22;16104;48.642;9.008;2022-12-19T22:41:56;7.70;66.40
29007;DHT22;16104;48.642;9.008;2022-12-19T22:46:51;7.70;66.40
29007;DHT22;16104;48.642;9.008;2022-12-19T22:51:47;7.70;66.40
29007;DHT22;16104;48.642;9.008;2022-12-19T22:56:43;7.60;66.30
29007;DHT22;16104;48.642;9.008;2022-12-19T23:01:40;7.60;66.40
29007;DHT22;16104;48.642;9.008;2022-12-19T23:06:37;7.60;66.50
29007;DHT22;16104;48.642;9.008;2022-12-19T23:11:35;7.60;66.50
29007;DHT22;16104;48.642;9.008;2022-12-19T23:16:30;7.60;66.60
29007;DHT22;16104;48.642;9.008;2022-12-19T23:21:26;7.60;66.80
29007;DHT22;16104;48.642;9.008;2022-12-19T23:26:31;7.60;66.90
29007;DHT22;16104;48.642;9.008;2022-12-19T23:31:27;7.70;67.00
29007;DHT22;16104;48.642;9.008;2022-12-19T23:36:24;7.70;66.90
29007;DHT22;16104;48.642;9.008;2022-12-19T23:41:20;7.70;66.80
29007;DHT22;16104;48.642;9.008;2022-12-19T23:46:19;7.80;66.80
29007;DHT22;16104;48.642;9.008;2022-12-19T23:51:23;7.80;66.60
29007;DHT22;16104;48.642;9.008;2022-12-19T23:56:22;7.80;66.50
